createdAt,value
2017-05-06T00:00:35.639Z,11.48
2017-05-06T00:03:03.351Z,11.18
2017-05-06T00:05:30.324Z,11.72
2017-05-06T00:07:57.318Z,13.06
2017-05-06T00:10:24.300Z,10.48
2017-05-06T00:12:51.286Z,11.56
2017-05-06T00:15:18.990Z,11.06
2017-05-06T00:17:45.993Z,11.12
2017-05-06T00:20:12.961Z,10.30
2017-05-06T00:22:39.964Z,11.68
2017-05-06T00:25:06.934Z,11.82
2017-05-06T00:27:33.904Z,11.50
2017-05-06T00:30:00.894Z,11.72
2017-05-06T00:32:27.870Z,11.12
2017-05-06T00:34:55.617Z,11.46
2017-05-06T00:37:22.578Z,11.30
2017-05-06T00:39:50.312Z,11.76
2017-05-06T00:42:17.302Z,11.46
2017-05-06T00:44:44.277Z,11.30
2017-05-06T00:47:11.273Z,11.04
2017-05-06T00:49:38.983Z,10.92
2017-05-06T00:52:05.975Z,10.64
2017-05-06T00:54:33.690Z,11.26
2017-05-06T00:59:34.404Z,12.10
2017-05-06T01:02:02.117Z,12.00
2017-05-06T01:04:29.125Z,11.32
2017-05-06T01:06:56.108Z,12.06
2017-05-06T01:09:23.118Z,13.18
2017-05-06T01:11:50.490Z,12.84
2017-05-06T01:14:17.461Z,12.02
2017-05-06T01:16:44.451Z,11.02
2017-05-06T01:19:12.193Z,11.40
2017-05-06T01:21:39.185Z,11.56
2017-05-06T01:24:06.145Z,12.92
2017-05-06T01:26:33.121Z,11.50
2017-05-06T01:29:00.120Z,13.06
2017-05-06T01:31:27.094Z,12.64
2017-05-06T01:33:54.130Z,12.52
2017-05-06T01:36:21.102Z,12.94
2017-05-06T01:38:48.116Z,12.38
2017-05-06T01:41:15.085Z,11.70
2017-05-06T01:43:42.054Z,12.82
2017-05-06T01:46:09.050Z,12.00
2017-05-06T01:48:36.012Z,12.78
2017-05-06T01:51:03.005Z,12.40
2017-05-06T01:53:30.711Z,12.80
2017-05-06T01:55:57.696Z,12.44
2017-05-06T01:58:24.683Z,12.30
2017-05-06T02:00:51.662Z,12.66
2017-05-06T02:03:18.649Z,11.76
2017-05-06T02:05:46.359Z,12.10
2017-05-06T02:08:13.369Z,10.80
2017-05-06T02:10:41.092Z,10.22
2017-05-06T02:13:08.091Z,11.36
2017-05-06T02:15:35.064Z,11.66
2017-05-06T02:18:02.066Z,11.18
2017-05-06T02:20:29.778Z,11.42
2017-05-06T02:22:56.769Z,12.12
2017-05-06T02:25:24.469Z,13.02
2017-05-06T02:27:51.482Z,12.50
2017-05-06T02:30:19.193Z,12.04
2017-05-06T02:32:46.161Z,12.50
2017-05-06T02:35:13.152Z,11.62
2017-05-06T02:37:40.123Z,12.36
2017-05-06T02:40:07.114Z,11.24
2017-05-06T02:42:34.075Z,11.04
2017-05-06T02:45:01.821Z,11.12
2017-05-06T02:47:28.788Z,10.78
2017-05-06T02:49:56.500Z,12.18
2017-05-06T02:52:23.496Z,11.58
2017-05-06T02:54:51.205Z,11.58
2017-05-06T02:57:18.195Z,11.98
2017-05-06T02:59:45.185Z,11.86
2017-05-06T03:02:12.190Z,13.50
2017-05-06T03:04:39.902Z,12.56
2017-05-06T03:07:06.901Z,13.64
2017-05-06T03:09:34.621Z,13.02
2017-05-06T03:12:01.590Z,12.92
2017-05-06T03:14:28.573Z,12.32
2017-05-06T03:16:55.548Z,11.52
2017-05-06T03:19:22.537Z,12.10
2017-05-06T03:21:49.523Z,11.72
2017-05-06T03:24:16.545Z,11.82
2017-05-06T03:26:44.251Z,12.10
2017-05-06T03:29:11.237Z,12.24
2017-05-06T03:31:38.230Z,12.10
2017-05-06T03:34:05.211Z,12.32
2017-05-06T03:36:32.209Z,12.44
2017-05-06T03:38:59.182Z,12.44
2017-05-06T03:41:26.189Z,12.42
2017-05-06T03:43:53.902Z,11.86
2017-05-06T03:46:20.870Z,11.22
2017-05-06T03:48:47.862Z,11.40
2017-05-06T03:51:14.882Z,12.64
2017-05-06T03:53:42.617Z,13.44
2017-05-06T03:56:09.586Z,12.44
2017-05-06T03:58:37.342Z,12.06
2017-05-06T04:01:04.308Z,12.18
2017-05-06T04:03:32.045Z,13.60
2017-05-06T04:05:59.030Z,13.68
2017-05-06T04:08:26.046Z,12.94
2017-05-06T04:10:53.015Z,13.34
2017-05-06T04:13:20.729Z,13.86
2017-05-06T04:15:47.719Z,13.26
2017-05-06T04:18:15.454Z,13.30
2017-05-06T04:20:42.465Z,14.80
2017-05-06T04:23:09.439Z,14.24
2017-05-06T04:25:36.446Z,12.78
2017-05-06T04:28:03.431Z,14.30
2017-05-06T04:30:30.413Z,14.14
2017-05-06T04:32:58.142Z,13.84
2017-05-06T04:35:25.116Z,14.02
2017-05-06T04:37:52.862Z,15.44
2017-05-06T04:40:19.832Z,15.46
2017-05-06T04:42:47.592Z,14.84
2017-05-06T04:45:15.310Z,14.44
2017-05-06T04:47:42.277Z,14.30
2017-05-06T04:50:09.266Z,14.62
2017-05-06T04:52:36.249Z,14.22
2017-05-06T04:55:03.342Z,15.92
2017-05-06T04:57:31.056Z,16.44
2017-05-06T04:59:58.071Z,15.72
2017-05-06T05:02:25.036Z,16.30
2017-05-06T05:04:52.019Z,17.90
2017-05-06T05:07:19.023Z,16.88
2017-05-06T05:09:46.009Z,18.56
2017-05-06T05:12:12.998Z,17.22
2017-05-06T05:14:39.993Z,18.90
2017-05-06T05:17:06.997Z,15.84
2017-05-06T05:19:33.971Z,15.34
2017-05-06T05:22:00.946Z,15.08
2017-05-06T05:24:27.939Z,14.34
2017-05-06T05:26:54.910Z,14.96
2017-05-06T05:29:21.906Z,16.22
2017-05-06T05:31:49.647Z,14.86
2017-05-06T05:34:16.661Z,14.92
2017-05-06T05:36:43.673Z,14.62
2017-05-06T05:39:10.674Z,14.98
2017-05-06T05:41:37.666Z,15.20
2017-05-06T05:44:04.642Z,18.82
2017-05-06T05:46:31.694Z,17.44
2017-05-06T05:48:58.661Z,16.94
2017-05-06T05:51:25.640Z,15.82
2017-05-06T05:53:52.651Z,16.36
2017-05-06T05:56:19.629Z,16.18
2017-05-06T05:58:46.637Z,17.26
2017-05-06T06:01:13.612Z,17.92
2017-05-06T06:03:41.359Z,18.02
2017-05-06T06:06:08.338Z,17.94
2017-05-06T06:08:35.306Z,19.16
2017-05-06T06:11:02.326Z,19.62
2017-05-06T06:13:29.293Z,19.02
2017-05-06T06:15:56.291Z,19.80
2017-05-06T06:20:57.615Z,19.68
2017-05-06T06:23:24.586Z,19.24
2017-05-06T06:25:52.301Z,18.48
2017-05-06T06:28:19.286Z,19.58
2017-05-06T06:30:47.028Z,19.52
2017-05-06T06:33:14.030Z,19.96
2017-05-06T06:35:40.997Z,17.80
2017-05-06T06:38:07.995Z,19.40
2017-05-06T06:40:35.718Z,18.38
2017-05-06T06:43:02.694Z,19.62
2017-05-06T06:45:30.426Z,19.16
2017-05-06T06:47:57.418Z,19.48
2017-05-06T06:50:24.442Z,17.82
2017-05-06T06:52:51.406Z,18.28
2017-05-06T06:55:19.141Z,18.30
2017-05-06T06:57:46.118Z,21.52
2017-05-06T07:00:13.884Z,19.42
2017-05-06T07:02:40.963Z,19.60
2017-05-06T07:05:08.045Z,18.42
2017-05-06T07:07:35.047Z,18.44
2017-05-06T07:10:02.407Z,17.90
2017-05-06T07:12:29.402Z,17.34
2017-05-06T07:14:56.895Z,18.90
2017-05-06T07:17:23.885Z,18.60
2017-05-06T07:19:50.859Z,19.06
2017-05-06T07:22:17.858Z,19.10
2017-05-06T07:24:45.000Z,16.70
2017-05-06T07:27:12.017Z,18.62
2017-05-06T07:29:38.994Z,18.72
2017-05-06T07:32:05.969Z,17.30
2017-05-06T07:34:33.735Z,16.72
2017-05-06T07:37:01.446Z,17.50
2017-05-06T07:39:28.425Z,17.42
2017-05-06T07:41:55.560Z,18.24
2017-05-06T07:44:22.569Z,21.10
2017-05-06T07:46:49.710Z,16.96
2017-05-06T07:49:16.712Z,19.02
2017-05-06T07:51:43.704Z,18.88
2017-05-06T07:54:10.682Z,18.36
2017-05-06T07:56:37.671Z,18.42
2017-05-06T07:59:04.665Z,17.46
2017-05-06T08:01:31.665Z,17.86
2017-05-06T08:03:58.646Z,16.26
2017-05-06T08:06:25.638Z,17.67
2017-05-06T08:08:53.390Z,17.50
2017-05-06T08:11:21.098Z,15.54
2017-05-06T08:13:48.083Z,16.00
2017-05-06T08:16:15.073Z,17.52
2017-05-06T08:18:42.456Z,15.80
2017-05-06T08:21:09.423Z,15.02
2017-05-06T08:23:36.430Z,16.80
2017-05-06T08:26:03.492Z,11.98
2017-05-06T08:28:30.916Z,15.06
2017-05-06T08:30:57.892Z,12.92
2017-05-06T08:33:25.107Z,13.46
2017-05-06T08:35:52.189Z,13.26
2017-05-06T08:38:19.216Z,13.20
2017-05-06T08:40:46.946Z,11.08
2017-05-06T08:43:14.151Z,10.30
2017-05-06T08:45:41.204Z,12.00
2017-05-06T08:48:08.174Z,12.42
2017-05-06T08:50:35.162Z,13.54
2017-05-06T08:53:02.234Z,12.34
2017-05-06T08:55:29.268Z,11.84
2017-05-06T08:57:57.005Z,9.80
2017-05-06T09:00:24.222Z,11.20
2017-05-06T09:02:51.324Z,10.52
2017-05-06T09:05:19.069Z,10.28
2017-05-06T09:07:46.031Z,10.44
2017-05-06T09:10:12.998Z,10.48
2017-05-06T09:12:40.741Z,11.34
2017-05-06T09:15:07.710Z,10.92
2017-05-06T09:17:34.704Z,11.02
2017-05-06T09:20:01.674Z,10.24
2017-05-06T09:22:29.403Z,7.62
2017-05-06T09:24:56.366Z,7.56
2017-05-06T09:27:23.360Z,8.90
2017-05-06T09:29:51.067Z,8.36
2017-05-06T09:32:18.050Z,8.76
2017-05-06T09:34:45.016Z,7.90
2017-05-06T09:37:11.985Z,8.90
2017-05-06T09:39:38.979Z,8.56
2017-05-06T09:42:05.942Z,7.86
2017-05-06T09:44:32.925Z,8.00
2017-05-06T09:46:59.887Z,7.70
2017-05-06T09:49:26.893Z,7.26
2017-05-06T09:51:53.880Z,6.80
2017-05-06T09:54:21.582Z,6.38
2017-05-06T09:56:49.314Z,7.48
2017-05-06T09:59:16.298Z,6.14
2017-05-06T10:01:44.025Z,6.90
2017-05-06T10:04:11.021Z,6.80
2017-05-06T10:06:38.023Z,6.54
2017-05-06T10:09:04.985Z,6.18
2017-05-06T10:11:31.950Z,6.08
2017-05-06T10:13:58.945Z,6.14
2017-05-06T10:16:25.931Z,6.26
2017-05-06T10:18:53.886Z,6.72
2017-05-06T10:21:20.894Z,5.42
2017-05-06T10:23:47.887Z,5.08
2017-05-06T10:26:15.780Z,5.50
2017-05-06T10:28:42.779Z,6.02
2017-05-06T10:31:09.750Z,4.64
2017-05-06T10:33:37.449Z,4.80
2017-05-06T10:36:04.428Z,4.34
2017-05-06T10:38:31.394Z,3.74
2017-05-06T10:40:58.387Z,3.40
2017-05-06T10:43:25.355Z,4.06
2017-05-06T10:45:52.359Z,4.04
2017-05-06T10:48:19.332Z,4.40
2017-05-06T10:50:46.449Z,4.96
2017-05-06T10:53:14.184Z,4.84
2017-05-06T10:55:41.162Z,4.72
2017-05-06T10:58:08.181Z,4.50
2017-05-06T11:00:35.147Z,4.06
2017-05-06T11:03:02.875Z,4.74
2017-05-06T11:05:29.846Z,4.12
2017-05-06T11:07:57.576Z,6.20
2017-05-06T11:10:24.554Z,7.72
2017-05-06T11:12:52.256Z,3.66
2017-05-06T11:15:19.271Z,3.20
2017-05-06T11:17:46.975Z,4.58
2017-05-06T11:20:13.974Z,5.72
2017-05-06T11:22:41.676Z,5.96
2017-05-06T11:25:08.642Z,18.92
2017-05-06T11:27:35.643Z,7.86
2017-05-06T11:30:02.637Z,3.70
2017-05-06T11:32:29.614Z,3.16
2017-05-06T11:34:56.573Z,3.34
2017-05-06T11:37:24.309Z,3.56
2017-05-06T11:39:51.274Z,4.26
2017-05-06T11:42:19.001Z,4.46
2017-05-06T11:44:45.990Z,4.90
2017-05-06T11:47:13.705Z,4.42
2017-05-06T11:49:40.707Z,3.88
2017-05-06T11:52:08.405Z,3.60
2017-05-06T11:54:35.406Z,4.06
2017-05-06T11:57:03.105Z,3.42
2017-05-06T11:59:30.132Z,4.08
2017-05-06T12:01:57.104Z,3.84
2017-05-06T12:04:24.066Z,3.82
2017-05-06T12:06:51.057Z,3.26
2017-05-06T12:09:18.780Z,3.86
2017-05-06T12:11:46.374Z,4.04
2017-05-06T12:14:14.088Z,3.94
2017-05-06T12:16:41.092Z,4.00
2017-05-06T12:19:08.795Z,4.20
2017-05-06T12:21:35.758Z,3.90
2017-05-06T12:24:03.483Z,4.12
2017-05-06T12:26:30.478Z,4.52
2017-05-06T12:28:58.206Z,4.40
2017-05-06T12:31:25.176Z,3.92
2017-05-06T12:33:59.741Z,4.04
2017-05-06T12:36:26.713Z,4.08
2017-05-06T12:38:53.712Z,3.82
2017-05-06T12:41:20.678Z,3.94
2017-05-06T12:43:47.695Z,3.94
2017-05-06T12:46:15.410Z,4.46
2017-05-06T12:48:42.394Z,5.72
2017-05-06T12:51:09.394Z,4.54
2017-05-06T12:53:36.384Z,4.14
2017-05-06T12:56:03.366Z,4.12
2017-05-06T12:58:30.362Z,4.60
2017-05-06T13:00:57.370Z,4.86
2017-05-06T13:03:24.349Z,5.58
2017-05-06T13:05:51.329Z,4.60
2017-05-06T13:08:18.324Z,4.56
2017-05-06T13:10:46.031Z,5.32
2017-05-06T13:13:13.028Z,5.32
2017-05-06T13:15:40.737Z,4.76
2017-05-06T13:18:07.721Z,4.92
2017-05-06T13:20:34.690Z,4.76
2017-05-06T13:23:01.679Z,5.40
2017-05-06T13:25:28.673Z,3.72
2017-05-06T13:27:55.896Z,3.98
2017-05-06T13:30:23.786Z,5.16
2017-05-06T13:32:50.776Z,4.58
2017-05-06T13:35:17.747Z,5.56
2017-05-06T13:37:44.732Z,4.74
2017-05-06T13:40:11.698Z,3.94
2017-05-06T13:42:38.687Z,4.48
2017-05-06T13:45:05.680Z,4.72
2017-05-06T13:47:33.398Z,4.94
2017-05-06T13:50:00.382Z,4.82
2017-05-06T13:52:27.346Z,4.68
2017-05-06T13:54:54.333Z,4.58
2017-05-06T13:57:21.333Z,5.28
2017-05-06T13:59:48.359Z,4.76
2017-05-06T14:02:16.069Z,4.64
2017-05-06T14:04:43.045Z,4.78
2017-05-06T14:07:10.786Z,4.18
2017-05-06T14:09:37.757Z,4.58
2017-05-06T14:12:04.758Z,3.96
2017-05-06T14:14:32.517Z,4.76
2017-05-06T14:16:59.494Z,3.82
2017-05-06T14:19:27.254Z,3.82
2017-05-06T14:21:54.249Z,3.78
2017-05-06T14:24:21.249Z,3.50
2017-05-06T14:26:48.231Z,3.40
2017-05-06T14:29:15.258Z,3.70
2017-05-06T14:31:42.238Z,3.54
2017-05-06T14:34:09.214Z,2.82
2017-05-06T14:36:36.206Z,2.72
2017-05-06T14:39:03.244Z,4.92
2017-05-06T14:41:30.998Z,6.06
2017-05-06T14:43:58.737Z,4.46
2017-05-06T14:46:25.779Z,3.50
2017-05-06T14:48:52.762Z,3.84
2017-05-06T14:51:19.737Z,3.60
2017-05-06T14:53:46.737Z,3.12
2017-05-06T14:56:13.729Z,2.88
2017-05-06T14:58:40.776Z,3.26
2017-05-06T15:01:07.750Z,3.10
2017-05-06T15:03:35.506Z,3.74
2017-05-06T15:06:02.482Z,3.50
2017-05-06T15:08:29.483Z,3.58
2017-05-06T15:10:56.554Z,2.60
2017-05-06T15:13:24.383Z,2.36
2017-05-06T15:15:51.403Z,2.30
2017-05-06T15:18:18.383Z,2.38
2017-05-06T15:20:45.385Z,1.82
2017-05-06T15:23:12.490Z,2.40
2017-05-06T15:25:39.535Z,2.04
2017-05-06T15:28:06.509Z,2.38
2017-05-06T15:30:33.521Z,2.12
2017-05-06T15:33:00.523Z,2.32
2017-05-06T15:35:27.491Z,2.14
2017-05-06T15:37:54.483Z,2.40
2017-05-06T15:40:22.233Z,2.26
2017-05-06T15:42:49.232Z,2.40
2017-05-06T15:45:16.260Z,2.30
2017-05-06T15:47:43.282Z,1.80
2017-05-06T15:50:11.009Z,2.58
2017-05-06T15:52:38.130Z,2.38
2017-05-06T15:55:05.842Z,2.22
2017-05-06T15:57:32.911Z,2.70
2017-05-06T15:59:59.907Z,1.90
2017-05-06T16:02:26.933Z,2.22
2017-05-06T16:04:54.082Z,2.12
2017-05-06T16:07:21.085Z,2.26
2017-05-06T16:09:48.208Z,2.40
2017-05-06T16:12:15.229Z,2.30
2017-05-06T16:14:42.291Z,2.54
2017-05-06T16:17:09.261Z,3.00
2017-05-06T16:19:36.223Z,2.74
2017-05-06T16:22:03.219Z,2.72
2017-05-06T16:24:30.289Z,2.70
2017-05-06T16:29:31.068Z,2.82
2017-05-06T16:31:58.237Z,2.90
2017-05-06T16:34:25.198Z,3.30
2017-05-06T16:36:53.082Z,3.22
2017-05-06T16:39:20.203Z,2.78
2017-05-06T16:41:54.220Z,3.50
2017-05-06T16:44:22.201Z,3.00
2017-05-06T16:46:49.274Z,2.52
2017-05-06T16:49:16.309Z,2.94
2017-05-06T16:51:43.419Z,2.92
2017-05-06T16:54:10.435Z,2.98
2017-05-06T16:56:37.403Z,2.50
2017-05-06T16:59:04.530Z,2.78
2017-05-06T17:01:31.499Z,2.90
2017-05-06T17:03:58.469Z,2.38
2017-05-06T17:06:26.216Z,2.70
2017-05-06T17:08:53.187Z,2.72
2017-05-06T17:11:20.205Z,2.78
2017-05-06T17:13:47.923Z,3.32
2017-05-06T17:16:29.860Z,2.80
2017-05-06T17:18:57.590Z,2.96
2017-05-06T17:21:24.582Z,2.76
2017-05-06T17:23:52.308Z,2.98
2017-05-06T17:26:19.306Z,2.76
2017-05-06T17:28:47.358Z,3.10
2017-05-06T17:31:14.509Z,2.50
2017-05-06T17:33:41.496Z,3.14
2017-05-06T17:36:08.457Z,2.70
2017-05-06T17:38:35.454Z,3.14
2017-05-06T17:41:03.162Z,3.88
2017-05-06T17:43:30.164Z,3.02
2017-05-06T17:45:57.992Z,2.70
2017-05-06T17:48:26.022Z,2.60
2017-05-06T17:50:53.018Z,3.18
2017-05-06T17:53:19.982Z,2.80
2017-05-06T17:55:47.711Z,2.94
2017-05-06T17:58:14.713Z,2.70
2017-05-06T18:00:41.706Z,3.56
2017-05-06T18:03:08.670Z,3.74
2017-05-06T18:05:36.418Z,3.10
2017-05-06T18:08:03.380Z,2.62
2017-05-06T18:10:31.089Z,2.34
2017-05-06T18:12:58.085Z,3.08
2017-05-06T18:15:25.791Z,2.24
2017-05-06T18:17:52.781Z,2.76
2017-05-06T18:20:19.745Z,2.24
2017-05-06T18:22:47.671Z,2.34
2017-05-06T18:25:15.273Z,2.02
2017-05-06T18:27:43.096Z,2.10
2017-05-06T18:30:10.814Z,2.04
2017-05-06T18:32:38.778Z,1.92
2017-05-06T18:35:05.754Z,1.92
2017-05-06T18:37:32.774Z,1.74
2017-05-06T18:39:59.782Z,2.00
2017-05-06T18:42:27.495Z,1.76
2017-05-06T18:44:54.487Z,1.92
2017-05-06T18:47:22.198Z,1.46
2017-05-06T18:49:49.183Z,2.00
2017-05-06T18:52:16.189Z,2.20
2017-05-06T18:54:43.205Z,1.56
2017-05-06T18:57:10.187Z,2.00
2017-05-06T18:59:37.191Z,1.76
2017-05-06T19:02:04.189Z,1.70
2017-05-06T19:04:31.169Z,1.98
2017-05-06T19:06:58.901Z,1.86
2017-05-06T19:09:27.613Z,1.50
2017-05-06T19:11:56.262Z,1.48
2017-05-06T19:14:23.239Z,1.60
2017-05-06T19:16:50.202Z,1.80
2017-05-06T19:19:17.938Z,1.76
2017-05-06T19:21:44.899Z,1.72
2017-05-06T19:24:11.885Z,1.70
2017-05-06T19:26:39.663Z,1.50
2017-05-06T19:29:06.656Z,1.56
2017-05-06T19:31:33.644Z,1.04
2017-05-06T19:34:01.376Z,1.32
2017-05-06T19:36:28.350Z,1.40
2017-05-06T19:38:56.086Z,1.52
2017-05-06T19:41:23.052Z,1.20
2017-05-06T19:43:50.110Z,1.40
2017-05-06T19:46:17.841Z,1.06
2017-05-06T19:48:44.822Z,1.22
2017-05-06T19:51:12.549Z,0.94
2017-05-06T19:53:39.514Z,1.52
2017-05-06T19:56:06.538Z,1.66
2017-05-06T19:58:33.565Z,1.50
2017-05-06T20:01:00.572Z,1.30
2017-05-06T20:03:28.369Z,1.76
2017-05-06T20:05:55.367Z,1.62
2017-05-06T20:08:22.357Z,1.52
2017-05-06T20:10:49.333Z,1.80
2017-05-06T20:13:16.336Z,1.70
2017-05-06T20:15:43.305Z,1.70
2017-05-06T20:18:10.346Z,1.80
2017-05-06T20:20:37.349Z,2.10
2017-05-06T20:23:05.094Z,2.30
2017-05-06T20:25:32.058Z,3.58
2017-05-06T20:27:59.058Z,2.20
2017-05-06T20:30:26.050Z,2.48
2017-05-06T20:32:53.763Z,1.82
2017-05-06T20:35:20.782Z,2.30
2017-05-06T20:37:47.746Z,2.10
2017-05-06T20:40:16.194Z,2.00
2017-05-06T20:42:43.940Z,1.78
2017-05-06T20:45:10.949Z,1.42
2017-05-06T20:47:37.969Z,1.40
2017-05-06T20:50:04.958Z,1.68
2017-05-06T20:52:31.967Z,1.78
2017-05-06T20:54:58.934Z,1.80
2017-05-06T20:57:26.104Z,1.54
2017-05-06T20:59:53.103Z,1.48
2017-05-06T21:02:20.072Z,1.30
2017-05-06T21:04:47.067Z,1.66
2017-05-06T21:07:14.033Z,1.30
2017-05-06T21:09:41.761Z,1.34
2017-05-06T21:12:08.725Z,1.46
2017-05-06T21:14:36.474Z,1.70
2017-05-06T21:17:03.452Z,1.30
2017-05-06T21:19:31.160Z,1.64
2017-05-06T21:21:58.166Z,1.10
2017-05-06T21:24:25.149Z,1.28
2017-05-06T21:26:52.133Z,1.38
2017-05-06T21:29:19.103Z,1.40
2017-05-06T21:31:46.114Z,1.28
2017-05-06T21:34:13.206Z,1.22
2017-05-06T21:36:40.325Z,1.40
2017-05-06T21:39:08.055Z,1.30
2017-05-06T21:41:35.022Z,1.92
2017-05-06T21:44:02.152Z,4.76
2017-05-06T21:46:29.278Z,4.74
2017-05-06T21:48:56.270Z,7.42
2017-05-06T21:51:23.271Z,4.96
2017-05-06T21:53:50.299Z,3.64
2017-05-06T21:56:17.284Z,3.20
2017-05-06T21:58:44.277Z,2.26
2017-05-06T22:01:12.008Z,1.24
2017-05-06T22:03:38.984Z,2.42
2017-05-06T22:06:06.722Z,2.90
2017-05-06T22:08:33.689Z,2.30
2017-05-06T22:11:01.441Z,1.48
2017-05-06T22:13:28.412Z,1.18
2017-05-06T22:15:55.389Z,1.10
2017-05-06T22:18:22.383Z,1.02
2017-05-06T22:20:50.086Z,1.06
2017-05-06T22:23:17.126Z,1.46
2017-05-06T22:25:44.092Z,1.50
2017-05-06T22:28:11.095Z,2.30
2017-05-06T22:30:38.805Z,1.78
2017-05-06T22:33:05.778Z,1.48
2017-05-06T22:35:32.753Z,1.10
2017-05-06T22:38:00.473Z,1.14
2017-05-06T22:40:27.476Z,1.48
2017-05-06T22:42:54.442Z,1.38
2017-05-06T22:45:21.408Z,1.22
2017-05-06T22:47:48.399Z,1.70
2017-05-06T22:50:16.105Z,1.64
2017-05-06T22:52:43.092Z,1.20
2017-05-06T22:55:10.054Z,1.40
2017-05-06T22:57:37.813Z,1.26
2017-05-06T23:00:05.543Z,1.10
2017-05-06T23:02:32.569Z,1.70
2017-05-06T23:04:59.559Z,1.70
2017-05-06T23:07:26.537Z,1.22
2017-05-06T23:09:53.523Z,1.00
2017-05-06T23:12:20.490Z,1.30
2017-05-06T23:14:47.476Z,1.20
2017-05-06T23:17:14.442Z,1.10
2017-05-06T23:19:41.436Z,1.40
2017-05-06T23:22:08.405Z,1.18
2017-05-06T23:24:35.381Z,1.28
2017-05-06T23:27:02.365Z,1.00
2017-05-06T23:29:29.333Z,1.26
2017-05-06T23:31:57.071Z,0.90
2017-05-06T23:34:24.038Z,1.18
2017-05-06T23:36:51.774Z,1.20
2017-05-06T23:39:18.814Z,1.00
2017-05-06T23:41:45.775Z,1.24
2017-05-06T23:44:12.765Z,1.38
2017-05-06T23:46:39.738Z,1.30
2017-05-06T23:49:06.722Z,1.10
2017-05-06T23:51:34.432Z,1.26
2017-05-06T23:54:01.433Z,1.18
2017-05-06T23:56:29.147Z,1.50
2017-05-06T23:58:56.169Z,1.48
